createdAt,value
2022-07-29T00:02:17.553Z,15.20
2022-07-29T00:04:44.309Z,15.20
2022-07-29T00:07:11.101Z,15.10
2022-07-29T00:09:50.561Z,15.20
2022-07-29T00:12:17.741Z,15.10
2022-07-29T00:14:53.311Z,15.10
2022-07-29T00:17:20.066Z,15.00
2022-07-29T00:19:46.846Z,15.00
2022-07-29T00:22:13.450Z,15.00
2022-07-29T00:24:40.397Z,15.00
2022-07-29T00:27:07.130Z,15.00
2022-07-29T00:29:34.891Z,14.90
2022-07-29T00:32:02.646Z,14.90
2022-07-29T00:34:47.809Z,14.90
2022-07-29T00:37:14.733Z,14.80
2022-07-29T00:39:41.376Z,14.80
2022-07-29T00:42:08.816Z,14.70
2022-07-29T00:44:42.609Z,14.80
2022-07-29T00:47:11.246Z,14.70
2022-07-29T00:49:40.328Z,14.70
2022-07-29T00:52:08.425Z,14.70
2022-07-29T00:54:35.402Z,14.70
2022-07-29T00:57:08.806Z,14.70
2022-07-29T00:59:35.966Z,14.70
2022-07-29T01:02:04.073Z,14.70
2022-07-29T01:04:32.359Z,14.70
2022-07-29T01:07:00.222Z,14.70
2022-07-29T01:09:42.870Z,14.60
2022-07-29T01:12:18.091Z,14.50
2022-07-29T01:14:45.606Z,14.50
2022-07-29T01:17:20.821Z,14.40
2022-07-29T01:19:53.228Z,14.40
2022-07-29T01:22:32.623Z,14.30
2022-07-29T01:25:32.593Z,14.20
2022-07-29T01:28:17.960Z,14.20
2022-07-29T01:30:47.405Z,14.10
2022-07-29T01:33:37.326Z,14.10
2022-07-29T01:36:11.626Z,14.10
2022-07-29T01:38:42.288Z,14.10
2022-07-29T01:41:13.553Z,14.00
2022-07-29T01:44:03.646Z,14.00
2022-07-29T01:46:35.849Z,14.00
2022-07-29T01:49:27.975Z,14.00
2022-07-29T01:52:06.480Z,13.90
2022-07-29T01:54:43.716Z,13.90
2022-07-29T01:57:20.436Z,13.90
2022-07-29T01:59:51.637Z,13.80
2022-07-29T02:02:19.830Z,13.80
2022-07-29T02:04:51.719Z,13.80
2022-07-29T02:07:21.944Z,13.70
2022-07-29T02:09:50.778Z,13.70
2022-07-29T02:12:19.634Z,13.70
2022-07-29T02:14:50.047Z,13.70
2022-07-29T02:17:25.866Z,13.70
2022-07-29T02:19:56.966Z,13.60
2022-07-29T02:22:26.314Z,13.60
2022-07-29T02:24:54.388Z,13.60
2022-07-29T02:27:21.466Z,13.60
2022-07-29T02:29:51.314Z,13.60
2022-07-29T02:32:18.990Z,13.60
2022-07-29T02:34:46.913Z,13.50
2022-07-29T02:37:14.107Z,13.50
2022-07-29T02:39:44.545Z,13.50
2022-07-29T02:42:14.572Z,13.50
2022-07-29T02:44:41.679Z,13.50
2022-07-29T02:47:30.682Z,13.40
2022-07-29T02:50:18.449Z,13.40
2022-07-29T02:52:51.262Z,13.40
2022-07-29T02:55:30.766Z,13.40
2022-07-29T02:58:30.209Z,13.40
2022-07-29T03:00:59.274Z,13.40
2022-07-29T03:03:31.186Z,13.40
2022-07-29T03:06:00.017Z,13.40
2022-07-29T03:08:28.184Z,13.40
2022-07-29T03:10:56.183Z,13.40
2022-07-29T03:13:23.666Z,13.30
2022-07-29T03:15:51.109Z,13.30
2022-07-29T03:18:18.728Z,13.40
2022-07-29T03:20:45.526Z,13.40
2022-07-29T03:23:12.298Z,13.40
2022-07-29T03:25:39.089Z,13.40
2022-07-29T03:28:05.818Z,13.40
2022-07-29T03:30:32.549Z,13.40
2022-07-29T03:32:59.432Z,13.40
2022-07-29T03:35:26.165Z,13.40
2022-07-29T03:37:52.844Z,13.40
2022-07-29T03:40:26.845Z,13.40
2022-07-29T03:42:56.465Z,13.40
2022-07-29T03:45:24.819Z,13.50
2022-07-29T03:48:00.679Z,13.50
2022-07-29T03:50:29.483Z,13.50
2022-07-29T03:52:56.405Z,13.60
2022-07-29T03:55:23.202Z,13.60
2022-07-29T03:57:51.458Z,13.70
2022-07-29T04:00:18.496Z,13.70
2022-07-29T04:02:49.758Z,13.70
2022-07-29T04:05:17.685Z,13.80
2022-07-29T04:07:50.353Z,13.90
2022-07-29T04:10:18.078Z,13.90
2022-07-29T04:12:57.358Z,14.00
2022-07-29T04:15:24.077Z,14.00
2022-07-29T04:17:50.709Z,14.00
2022-07-29T04:20:17.349Z,14.20
2022-07-29T04:22:44.054Z,14.10
2022-07-29T04:25:10.782Z,14.20
2022-07-29T04:27:57.454Z,14.30
2022-07-29T04:30:24.197Z,14.30
2022-07-29T04:32:50.864Z,14.40
2022-07-29T04:35:17.514Z,14.40
2022-07-29T04:37:44.462Z,14.40
2022-07-29T04:40:11.543Z,14.50
2022-07-29T04:42:45.065Z,14.50
2022-07-29T04:45:13.369Z,14.60
2022-07-29T04:47:40.970Z,14.70
2022-07-29T04:50:08.874Z,14.70
2022-07-29T04:52:38.248Z,14.80
2022-07-29T04:55:06.225Z,14.90
2022-07-29T04:57:32.968Z,15.00
2022-07-29T04:59:59.678Z,15.00
2022-07-29T05:02:26.455Z,15.10
2022-07-29T05:04:53.230Z,15.20
2022-07-29T05:07:19.956Z,15.30
2022-07-29T05:09:46.619Z,15.40
2022-07-29T05:12:13.296Z,15.40
2022-07-29T05:14:40.020Z,15.50
2022-07-29T05:17:06.790Z,15.50
2022-07-29T05:19:33.508Z,15.60
2022-07-29T05:22:06.523Z,15.50
2022-07-29T05:24:33.461Z,15.60
2022-07-29T05:27:00.108Z,15.60
2022-07-29T05:29:44.238Z,15.60
2022-07-29T05:32:15.607Z,15.60
2022-07-29T05:34:50.158Z,15.60
2022-07-29T05:37:18.765Z,15.60
2022-07-29T05:39:49.016Z,15.60
2022-07-29T05:42:24.163Z,15.80
2022-07-29T05:44:50.880Z,15.80
2022-07-29T05:47:17.732Z,15.80
2022-07-29T05:49:44.780Z,15.90
2022-07-29T05:52:11.557Z,16.00
2022-07-29T05:54:38.329Z,16.00
2022-07-29T05:57:05.605Z,16.10
2022-07-29T05:59:36.329Z,16.10
2022-07-29T06:02:03.109Z,16.10
2022-07-29T06:04:30.059Z,16.10
2022-07-29T06:06:57.164Z,16.10
2022-07-29T06:09:24.270Z,16.10
2022-07-29T06:11:50.941Z,16.20
2022-07-29T06:14:17.962Z,16.20
2022-07-29T06:16:45.449Z,16.20
2022-07-29T06:19:12.244Z,16.30
2022-07-29T06:21:44.435Z,16.30
2022-07-29T06:24:15.883Z,16.40
2022-07-29T06:26:43.615Z,16.60
2022-07-29T06:29:13.619Z,16.70
2022-07-29T06:31:40.593Z,16.70
2022-07-29T06:34:07.602Z,16.90
2022-07-29T06:36:38.316Z,17.10
2022-07-29T06:39:09.823Z,17.20
2022-07-29T06:41:38.386Z,17.40
2022-07-29T06:44:05.649Z,17.50
2022-07-29T06:46:33.204Z,17.60
2022-07-29T06:49:02.375Z,17.60
2022-07-29T06:51:29.247Z,17.70
2022-07-29T06:54:01.621Z,17.80
2022-07-29T06:56:39.478Z,17.80
2022-07-29T06:59:07.238Z,18.00
2022-07-29T07:01:34.052Z,18.10
2022-07-29T07:04:00.782Z,18.30
2022-07-29T07:06:27.487Z,18.50
2022-07-29T07:08:54.194Z,18.70
2022-07-29T07:11:21.261Z,18.80
2022-07-29T07:13:47.884Z,19.10
2022-07-29T07:16:14.705Z,19.20
2022-07-29T07:18:41.535Z,19.50
2022-07-29T07:21:08.307Z,19.80
2022-07-29T07:23:34.927Z,20.10
2022-07-29T07:26:01.582Z,20.50
2022-07-29T07:28:28.450Z,20.60
2022-07-29T07:30:55.097Z,20.90
2022-07-29T07:33:21.901Z,21.10
2022-07-29T07:35:48.602Z,21.10
2022-07-29T07:38:15.346Z,21.20
2022-07-29T07:40:42.715Z,21.40
2022-07-29T07:43:09.420Z,21.40
2022-07-29T07:45:38.206Z,21.40
2022-07-29T07:48:05.742Z,21.80
2022-07-29T07:50:32.770Z,22.10
2022-07-29T07:52:59.748Z,22.40
2022-07-29T07:55:27.099Z,22.90
2022-07-29T07:57:54.538Z,23.30
2022-07-29T08:00:23.014Z,23.80
2022-07-29T08:02:50.925Z,24.30
2022-07-29T08:05:18.309Z,24.60
2022-07-29T08:07:47.054Z,24.90
2022-07-29T08:10:15.474Z,25.10
2022-07-29T08:12:42.797Z,25.30
2022-07-29T08:15:10.039Z,25.70
2022-07-29T08:17:37.214Z,26.10
2022-07-29T08:20:04.934Z,26.20
2022-07-29T08:22:32.405Z,26.20
2022-07-29T08:24:59.075Z,26.20
2022-07-29T08:27:42.941Z,26.50
2022-07-29T08:30:11.259Z,26.60
2022-07-29T08:32:53.345Z,26.80
2022-07-29T08:35:22.155Z,26.70
2022-07-29T08:37:48.928Z,27.00
2022-07-29T08:40:15.804Z,27.30
2022-07-29T08:42:42.765Z,27.70
2022-07-29T08:45:09.962Z,28.10
2022-07-29T08:47:40.726Z,28.30
2022-07-29T08:50:11.950Z,28.60
2022-07-29T08:52:40.319Z,28.80
2022-07-29T08:55:08.750Z,28.90
2022-07-29T08:57:37.198Z,28.90
2022-07-29T09:00:11.440Z,29.00
2022-07-29T09:02:46.923Z,28.80
2022-07-29T09:05:15.423Z,28.80
2022-07-29T09:07:44.200Z,29.00
2022-07-29T09:10:11.417Z,29.20
2022-07-29T09:12:38.838Z,28.90
2022-07-29T09:15:05.992Z,28.60
2022-07-29T09:17:47.403Z,28.30
2022-07-29T09:20:19.800Z,28.30
2022-07-29T09:22:50.284Z,28.10
2022-07-29T09:25:37.977Z,28.00
2022-07-29T09:28:11.784Z,27.70
2022-07-29T09:30:51.703Z,27.80
2022-07-29T09:33:18.566Z,27.80
2022-07-29T09:35:56.386Z,27.70
2022-07-29T09:38:24.478Z,27.40
2022-07-29T09:40:59.969Z,27.00
2022-07-29T09:43:32.938Z,26.60
2022-07-29T09:46:19.969Z,26.20
2022-07-29T09:49:07.321Z,25.90
2022-07-29T09:51:38.602Z,25.70
2022-07-29T09:54:24.378Z,25.60
2022-07-29T09:56:51.501Z,25.60
2022-07-29T09:59:18.502Z,25.50
2022-07-29T10:01:45.296Z,25.40
2022-07-29T10:04:12.044Z,25.60
2022-07-29T10:07:03.874Z,25.70
2022-07-29T10:09:31.553Z,26.20
2022-07-29T10:12:07.094Z,27.10
2022-07-29T10:14:34.604Z,27.70
2022-07-29T10:17:02.299Z,28.20
2022-07-29T10:19:31.738Z,28.60
2022-07-29T10:22:03.447Z,28.70
2022-07-29T10:24:32.424Z,28.90
2022-07-29T10:27:01.586Z,29.40
2022-07-29T10:29:29.837Z,29.90
2022-07-29T10:32:05.623Z,30.50
2022-07-29T10:34:52.478Z,31.10
2022-07-29T10:37:29.370Z,31.60
2022-07-29T10:40:37.244Z,32.00
2022-07-29T10:43:23.237Z,32.30
2022-07-29T10:45:57.910Z,31.80
2022-07-29T10:48:25.257Z,31.40
2022-07-29T10:50:56.367Z,31.10
2022-07-29T10:53:24.426Z,31.00
2022-07-29T10:55:53.176Z,31.40
2022-07-29T10:58:21.341Z,31.90
2022-07-29T11:00:53.370Z,32.20
2022-07-29T11:03:49.338Z,32.40
2022-07-29T11:07:03.883Z,32.20
2022-07-29T11:09:37.581Z,32.00
2022-07-29T11:12:24.434Z,32.00
2022-07-29T11:15:00.110Z,32.00
2022-07-29T11:17:27.207Z,31.90
2022-07-29T11:20:42.777Z,31.60
2022-07-29T11:23:19.699Z,30.90
2022-07-29T11:26:07.651Z,30.60
2022-07-29T11:28:36.321Z,30.70
2022-07-29T11:31:04.621Z,30.90
2022-07-29T11:33:37.546Z,31.50
2022-07-29T11:36:28.158Z,31.90
2022-07-29T11:39:36.332Z,32.20
2022-07-29T11:42:32.123Z,32.70
2022-07-29T11:45:04.302Z,32.90
2022-07-29T11:47:48.882Z,33.40
2022-07-29T11:50:33.191Z,33.70
2022-07-29T11:53:01.192Z,33.80
2022-07-29T11:55:38.711Z,34.40
2022-07-29T11:58:24.827Z,34.50
2022-07-29T12:00:53.205Z,34.80
2022-07-29T12:03:34.858Z,34.80
2022-07-29T12:06:04.296Z,34.80
2022-07-29T12:08:31.096Z,34.80
2022-07-29T12:10:58.407Z,34.30
2022-07-29T12:13:37.176Z,33.80
2022-07-29T12:16:05.810Z,33.10
2022-07-29T12:18:32.736Z,32.60
2022-07-29T12:21:04.668Z,32.40
2022-07-29T12:23:35.142Z,32.20
2022-07-29T12:26:07.456Z,32.10
2022-07-29T12:28:40.601Z,32.20
2022-07-29T12:31:14.833Z,32.00
2022-07-29T12:34:01.848Z,31.80
2022-07-29T12:36:28.569Z,32.30
2022-07-29T12:38:55.267Z,32.30
2022-07-29T12:41:23.138Z,32.00
2022-07-29T12:43:54.873Z,31.60
2022-07-29T12:46:21.603Z,31.90
2022-07-29T12:48:55.594Z,31.90
2022-07-29T12:51:37.524Z,31.90
2022-07-29T12:54:12.215Z,32.40
2022-07-29T12:56:44.310Z,32.50
2022-07-29T12:59:19.940Z,32.60
2022-07-29T13:01:50.396Z,32.60
2022-07-29T13:04:31.568Z,32.30
2022-07-29T13:07:04.684Z,31.70
2022-07-29T13:09:46.454Z,31.10
2022-07-29T13:12:14.758Z,30.60
2022-07-29T13:14:47.065Z,30.40
2022-07-29T13:17:19.082Z,30.70
2022-07-29T13:19:51.529Z,30.60
2022-07-29T13:22:23.402Z,30.50
2022-07-29T13:24:52.512Z,30.50
2022-07-29T13:27:20.854Z,30.20
2022-07-29T13:29:47.840Z,29.90
2022-07-29T13:32:14.695Z,29.60
2022-07-29T13:34:41.882Z,29.30
2022-07-29T13:37:08.589Z,29.10
2022-07-29T13:39:35.457Z,29.00
2022-07-29T13:42:02.143Z,29.30
2022-07-29T13:44:28.821Z,29.40
2022-07-29T13:46:55.565Z,29.20
2022-07-29T13:49:22.413Z,29.00
2022-07-29T13:51:50.459Z,28.60
2022-07-29T13:54:17.596Z,28.40
2022-07-29T13:56:44.222Z,28.30
2022-07-29T13:59:13.317Z,28.20
2022-07-29T14:01:42.516Z,28.30
2022-07-29T14:04:10.301Z,28.80
2022-07-29T14:06:39.143Z,29.60
2022-07-29T14:09:07.258Z,30.20
2022-07-29T14:11:34.368Z,30.70
2022-07-29T14:14:00.971Z,31.40
2022-07-29T14:16:27.645Z,31.60
2022-07-29T14:18:54.332Z,31.80
2022-07-29T14:21:21.009Z,31.60
2022-07-29T14:23:48.443Z,31.50
2022-07-29T14:26:21.602Z,31.30
2022-07-29T14:28:51.268Z,31.30
2022-07-29T14:31:18.078Z,31.20
2022-07-29T14:33:46.202Z,31.20
2022-07-29T14:36:16.152Z,31.30
2022-07-29T14:38:42.928Z,31.10
2022-07-29T14:41:09.602Z,30.90
2022-07-29T14:43:36.446Z,30.70
2022-07-29T14:46:08.179Z,30.40
2022-07-29T14:48:35.211Z,30.30
2022-07-29T14:51:04.689Z,30.50
2022-07-29T14:53:31.968Z,30.70
2022-07-29T14:56:06.239Z,30.70
2022-07-29T14:58:51.600Z,30.70
2022-07-29T15:01:18.816Z,30.60
2022-07-29T15:03:45.573Z,30.70
2022-07-29T15:06:12.404Z,30.70
2022-07-29T15:08:39.110Z,30.70
2022-07-29T15:11:05.765Z,30.80
2022-07-29T15:13:32.501Z,30.60
2022-07-29T15:16:00.355Z,30.60
2022-07-29T15:18:27.448Z,30.70
2022-07-29T15:20:54.182Z,30.60
2022-07-29T15:23:20.932Z,30.60
2022-07-29T15:25:47.606Z,30.70
2022-07-29T15:28:14.253Z,30.90
2022-07-29T15:30:41.899Z,31.00
2022-07-29T15:33:12.232Z,30.90
2022-07-29T15:35:40.261Z,30.90
2022-07-29T15:38:07.813Z,30.70
2022-07-29T15:40:34.564Z,30.20
2022-07-29T15:43:06.625Z,29.80
2022-07-29T15:45:41.435Z,29.40
2022-07-29T15:48:09.849Z,29.40
2022-07-29T15:50:41.496Z,29.50
2022-07-29T15:53:08.186Z,29.70
2022-07-29T15:55:34.935Z,29.70
2022-07-29T15:58:01.595Z,29.80
2022-07-29T16:00:28.252Z,29.90
2022-07-29T16:02:54.911Z,30.00
2022-07-29T16:05:21.603Z,30.10
2022-07-29T16:07:48.345Z,30.10
2022-07-29T16:10:15.012Z,29.90
2022-07-29T16:12:41.796Z,29.80
2022-07-29T16:15:10.363Z,29.70
2022-07-29T16:17:38.134Z,29.40
2022-07-29T16:20:06.414Z,29.20
2022-07-29T16:22:33.064Z,29.00
2022-07-29T16:24:59.700Z,28.70
2022-07-29T16:27:35.628Z,28.60
2022-07-29T16:30:07.449Z,28.60
2022-07-29T16:32:34.634Z,28.60
2022-07-29T16:35:05.287Z,28.60
2022-07-29T16:37:35.237Z,28.60
2022-07-29T16:40:03.437Z,28.60
2022-07-29T16:42:46.147Z,28.50
2022-07-29T16:45:13.655Z,28.50
2022-07-29T16:47:40.558Z,28.40
2022-07-29T16:50:07.962Z,28.20
2022-07-29T16:52:34.717Z,28.00
2022-07-29T16:55:01.409Z,27.80
2022-07-29T16:57:28.061Z,27.60
2022-07-29T16:59:54.865Z,27.50
2022-07-29T17:02:21.721Z,27.40
2022-07-29T17:04:48.634Z,27.30
2022-07-29T17:07:15.984Z,27.30
2022-07-29T17:09:43.024Z,27.20
2022-07-29T17:12:09.835Z,27.20
2022-07-29T17:14:36.735Z,27.10
2022-07-29T17:17:04.199Z,27.00
2022-07-29T17:19:39.020Z,26.90
2022-07-29T17:22:15.662Z,26.80
2022-07-29T17:24:45.955Z,26.60
2022-07-29T17:27:12.620Z,26.50
2022-07-29T17:29:39.985Z,26.50
2022-07-29T17:32:08.140Z,26.40
2022-07-29T17:34:39.443Z,26.30
2022-07-29T17:37:08.179Z,26.40
2022-07-29T17:39:35.581Z,26.30
2022-07-29T17:42:03.658Z,26.30
2022-07-29T17:44:30.327Z,26.20
2022-07-29T17:46:57.338Z,26.10
2022-07-29T17:49:24.277Z,26.10
2022-07-29T17:51:50.986Z,25.90
2022-07-29T17:54:17.877Z,25.90
2022-07-29T17:56:44.585Z,25.80
2022-07-29T17:59:11.405Z,25.70
2022-07-29T18:01:40.071Z,25.70
2022-07-29T18:04:09.502Z,25.60
2022-07-29T18:06:36.293Z,25.60
2022-07-29T18:09:03.534Z,25.40
2022-07-29T18:11:32.481Z,25.30
2022-07-29T18:13:59.126Z,25.20
2022-07-29T18:16:29.383Z,25.10
2022-07-29T18:18:56.218Z,25.10
2022-07-29T18:21:43.631Z,25.00
2022-07-29T18:24:09.576Z,25.00
2022-07-29T18:26:37.762Z,24.80
2022-07-29T18:29:04.409Z,24.70
2022-07-29T18:31:31.113Z,24.60
2022-07-29T18:34:00.035Z,24.60
2022-07-29T18:36:26.981Z,24.60
2022-07-29T18:38:53.584Z,24.60
2022-07-29T18:41:20.226Z,24.40
2022-07-29T18:43:47.194Z,24.40
2022-07-29T18:46:14.991Z,24.20
2022-07-29T18:48:41.730Z,24.20
2022-07-29T18:51:09.700Z,24.10
2022-07-29T18:53:37.044Z,24.10
2022-07-29T18:56:04.146Z,24.00
2022-07-29T18:58:32.977Z,23.90
2022-07-29T19:01:00.431Z,23.80
2022-07-29T19:03:27.125Z,23.80
2022-07-29T19:05:53.809Z,23.70
2022-07-29T19:08:20.437Z,23.70
2022-07-29T19:10:47.211Z,23.60
2022-07-29T19:13:13.911Z,23.50
2022-07-29T19:15:40.690Z,23.30
2022-07-29T19:18:07.374Z,23.20
2022-07-29T19:20:34.073Z,23.00
2022-07-29T19:23:00.703Z,23.00
2022-07-29T19:25:27.346Z,23.00
2022-07-29T19:27:54.173Z,23.00
2022-07-29T19:30:20.971Z,22.90
2022-07-29T19:32:47.857Z,23.00
2022-07-29T19:35:25.384Z,23.00
2022-07-29T19:37:52.874Z,22.90
2022-07-29T19:40:20.392Z,22.80
2022-07-29T19:42:51.568Z,22.60
2022-07-29T19:45:23.010Z,22.50
2022-07-29T19:47:49.675Z,22.30
2022-07-29T19:50:16.548Z,22.20
2022-07-29T19:52:44.086Z,22.10
2022-07-29T19:55:11.083Z,22.10
2022-07-29T19:57:41.162Z,21.90
2022-07-29T20:00:11.222Z,22.00
2022-07-29T20:02:39.439Z,21.90
2022-07-29T20:05:07.028Z,22.10
2022-07-29T20:07:33.867Z,22.00
2022-07-29T20:10:00.563Z,21.90
2022-07-29T20:12:27.191Z,21.90
2022-07-29T20:14:53.932Z,21.80
2022-07-29T20:17:22.256Z,21.80
2022-07-29T20:19:50.288Z,21.70
2022-07-29T20:22:21.197Z,21.60
2022-07-29T20:24:48.781Z,21.50
2022-07-29T20:27:15.500Z,21.40
2022-07-29T20:29:42.463Z,21.30
2022-07-29T20:32:09.246Z,21.20
2022-07-29T20:34:35.930Z,21.20
2022-07-29T20:37:02.965Z,21.10
2022-07-29T20:39:30.452Z,21.00
2022-07-29T20:41:57.156Z,20.90
2022-07-29T20:44:24.307Z,20.90
2022-07-29T20:46:51.102Z,20.80
2022-07-29T20:49:17.810Z,20.80
2022-07-29T20:51:44.652Z,20.70
2022-07-29T20:54:12.267Z,20.60
2022-07-29T20:56:39.389Z,20.50
2022-07-29T20:59:06.071Z,20.50
2022-07-29T21:01:32.791Z,20.40
2022-07-29T21:04:00.849Z,20.30
2022-07-29T21:06:27.581Z,20.20
2022-07-29T21:08:57.716Z,20.20
2022-07-29T21:11:44.266Z,20.10
2022-07-29T21:14:29.534Z,20.10
2022-07-29T21:16:56.792Z,20.00
2022-07-29T21:19:23.637Z,20.00
2022-07-29T21:21:50.338Z,19.90
2022-07-29T21:24:16.978Z,19.80
2022-07-29T21:26:50.655Z,19.80
2022-07-29T21:29:26.704Z,19.70
2022-07-29T21:31:53.570Z,19.60
2022-07-29T21:34:20.229Z,19.60
2022-07-29T21:36:58.777Z,19.50
2022-07-29T21:39:25.916Z,19.50
2022-07-29T21:41:52.564Z,19.50
2022-07-29T21:44:20.942Z,19.50
2022-07-29T21:46:48.488Z,19.50
2022-07-29T21:49:15.169Z,19.40
2022-07-29T21:51:41.951Z,19.30
2022-07-29T21:54:08.608Z,19.30
2022-07-29T21:56:35.308Z,19.30
2022-07-29T21:59:03.060Z,19.20
2022-07-29T22:01:29.707Z,19.20
2022-07-29T22:04:06.666Z,19.20
2022-07-29T22:06:34.607Z,19.20
2022-07-29T22:09:01.383Z,19.20
2022-07-29T22:11:28.096Z,19.20
2022-07-29T22:13:54.810Z,19.10
2022-07-29T22:16:21.453Z,19.10
2022-07-29T22:18:48.831Z,19.10
2022-07-29T22:21:16.069Z,19.00
2022-07-29T22:23:42.714Z,19.00
2022-07-29T22:26:09.471Z,18.90
2022-07-29T22:28:36.124Z,18.90
2022-07-29T22:31:03.001Z,18.90
2022-07-29T22:33:29.777Z,18.80
2022-07-29T22:35:56.444Z,18.80
2022-07-29T22:38:23.099Z,18.70
2022-07-29T22:40:51.245Z,18.70
2022-07-29T22:43:18.063Z,18.70
2022-07-29T22:45:44.760Z,18.60
2022-07-29T22:48:11.787Z,18.60
2022-07-29T22:50:38.991Z,18.60
2022-07-29T22:53:05.644Z,18.60
2022-07-29T22:55:32.363Z,18.60
2022-07-29T22:57:59.159Z,18.60
2022-07-29T23:00:26.243Z,18.50
2022-07-29T23:02:52.957Z,18.50
2022-07-29T23:05:19.674Z,18.50
2022-07-29T23:07:46.385Z,18.50
2022-07-29T23:10:13.035Z,18.40
2022-07-29T23:12:39.790Z,18.40
2022-07-29T23:15:06.831Z,18.40
2022-07-29T23:17:36.033Z,18.40
2022-07-29T23:20:07.672Z,18.40
2022-07-29T23:22:35.286Z,18.40
2022-07-29T23:25:02.106Z,18.30
2022-07-29T23:27:28.782Z,18.30
2022-07-29T23:29:55.387Z,18.30
2022-07-29T23:32:22.114Z,18.30
2022-07-29T23:34:48.758Z,18.20
2022-07-29T23:37:15.385Z,18.20
2022-07-29T23:39:42.242Z,18.20
2022-07-29T23:42:09.829Z,18.10
2022-07-29T23:44:36.468Z,18.10
2022-07-29T23:47:03.491Z,18.10
2022-07-29T23:49:30.649Z,18.00
2022-07-29T23:51:57.355Z,18.00
2022-07-29T23:54:24.090Z,18.00
2022-07-29T23:56:50.734Z,18.00
2022-07-29T23:59:17.392Z,18.00
